Latest Coastal Weather Observations for King Island Airport

IDV60701

Issued at 6:51 pm EST Sunday 28 August 2016 (issued every 10 minutes, with the page automatically refreshed every 10 minutes)

About coastal observations | Map of coastal stations | Coastal observations for VIC | Marine services | Other Formats
Station Details ID: 098017 Name: KING ISLAND AIRPORT Lat: -39.88 Lon: 143.88 Height: 37.0 m
Data from the previous 72 hours. | See also: Recent months at King Island Airport
Date/Time
EST
Temp
°C
Wind Pressure Rain since
9am
mm
Weather Cloud Vis
km
Sea
Height
m
Swell
Dir  Spd
kts
Gust
kts
hPa Trend Height
m
Period
s
Dir
28/06:30pm 9.6 E 7 7 1020.2 - 0.0 - Partly cloudy 10 - - - -
28/06:00pm 10.5 ENE 6 7 1020.0 - 0.0 - Mostly cloudy 10 - - - -
28/05:30pm 11.1 ESE 8 9 1019.5 - 0.0 - Cloudy 10 - - - -
28/05:00pm 11.7 ESE 7 9 1019.5 - 0.0 - Cloudy 10 - - - -
28/04:30pm 11.8 W 5 7 1019.5 - 0.0 - Cloudy 10 - - - -
28/04:00pm 12.3 SW 3 5 1019.2 - 0.0 - Cloudy 10 - - - -
28/03:30pm 12.3 WSW 3 5 1019.2 - 0.0 - Cloudy 10 - - - -
28/03:00pm 12.0 SW 5 8 1019.2 - 0.0 - Mostly clear 10 - - - -
28/02:30pm 12.5 W 6 9 1019.2 - 0.0 - Partly cloudy 10 - - - -
28/02:00pm 12.3 WNW 6 8 1019.3 - 0.0 - Partly cloudy 10 - - - -
28/01:30pm 12.2 WNW 6 8 1019.2 - 0.0 - Partly cloudy 10 - - - -
28/01:00pm 12.4 NNW 5 8 1019.5 - 0.0 - Partly cloudy 10 - - - -
28/12:30pm 12.6 WNW 3 5 1019.7 - 0.0 - Partly cloudy 10 - - - -
28/12:00pm 11.6 NNW 3 5 1019.8 - 0.0 - Cloudy 10 - - - -
28/11:30am 11.2 WSW 4 6 1019.9 - 0.0 - Partly cloudy 10 - - - -
28/11:00am 10.9 SSW 4 7 1019.9 - 0.0 - Partly cloudy 10 - - - -
28/10:30am 11.1 ESE 5 8 1019.9 - 0.0 - Partly cloudy 10 - - - -
28/10:00am 10.5 E 1 4 1019.9 - 0.0 - Partly cloudy 10 - - - -
28/09:30am 9.9 SE 4 5 1019.8 - 0.0 - Cloudy 10 - - - -
28/09:00am 9.6 CALM 0 0 1019.6 - 4.2 - Cloudy 10 - - - -
28/08:30am 8.9 CALM 0 0 1019.5 - 4.2 - Partly cloudy 10 - - - -
28/08:00am 8.6 CALM 0 0 1019.0 - 4.2 - Partly cloudy 10 - - - -
28/07:30am 8.6 NE 4 5 1018.6 - 4.2 - Partly cloudy 10 - - - -
28/07:00am 8.7 SSW 2 4 1018.0 - 4.2 - Cloudy 10 - - - -
28/06:30am 8.8 SW 5 6 1017.6 - 4.2 - Cloudy 10 - - - -
28/06:00am 8.8 SSW 8 10 1017.2 - 4.2 Showers Cloudy 10 - - - -
28/05:30am 8.9 SW 7 9 1016.9 - 4.2 - Cloudy 10 - - - -
28/05:00am 9.0 SW 6 9 1016.8 - 4.2 - Partly cloudy 10 - - - -
28/04:30am 9.0 SSW 8 11 1016.3 - 4.2 - Partly cloudy 10 - - - -
28/04:00am 9.1 SW 9 13 1015.9 - 4.2 - Partly cloudy 10 - - - -
28/03:30am 9.2 SSW 11 15 1015.6 - 4.2 - Partly cloudy 10 - - - -
28/03:00am 9.4 SW 13 16 1015.5 - 4.0 Rain Cloudy 6 - - - -
28/02:30am 10.0 WSW 12 17 1015.2 - 3.6 - Partly cloudy 10 - - - -
28/02:00am 10.4 SW 12 17 1015.1 - 3.4 - Partly cloudy 10 - - - -
28/01:58am 10.4 SW 13 19 1015.1 - 3.4 - Partly cloudy 10 - - - -
28/01:30am 10.5 W 14 20 1014.9 - 3.4 - Partly cloudy 10 - - - -
28/01:16am 10.7 W 17 22 1014.7 - 3.4 - Partly cloudy 7 - - - -
28/01:15am 10.6 W 18 26 1014.7 - 3.4 - Partly cloudy 7 - - - -
28/01:00am 10.0 W 23 34 1014.7 - 3.0 - Partly cloudy 3 - - - -
28/12:49am 10.8 W 25 37 1014.7 - 1.4 - Partly cloudy 5 - - - -
28/12:46am 11.2 WNW 26 37 1014.7 - 1.2 - Partly cloudy 9 - - - -
28/12:42am 13.2 WNW 27 37 1013.9 - 1.0 - Partly cloudy 10 - - - -
28/12:30am 13.3 NW 27 35 1013.7 - 1.0 - Partly cloudy 10 - - - -
28/12:14am 13.2 NW 26 38 1013.6 - 1.0 - Partly cloudy 10 - - - -
28/12:00am 13.2 NW 27 33 1013.7 - 1.0 - Cloudy 10 - - - -
 
Date/Time
EST
Temp
°C
Wind Pressure Rain since
9am
mm
Weather Cloud Vis
km
Sea
Height
m
Swell
Dir  Spd
kts
Gust
kts
hPa Trend Height
m
Period
s
Dir
27/11:30pm 13.1 NW 27 35 1013.6 - 1.0 - Partly cloudy 10 - - - -
27/11:00pm 13.1 NW 26 33 1013.8 - 1.0 - Partly cloudy 10 - - - -
27/10:30pm 13.0 NW 26 34 1013.9 - 1.0 - Cloudy 10 - - - -
27/10:00pm 13.0 NW 26 32 1014.1 - 1.0 - Cloudy 10 - - - -
27/09:30pm 13.0 NW 23 30 1014.3 - 1.0 - Cloudy 10 - - - -
27/09:00pm 12.9 NW 23 29 1014.6 - 1.0 - Cloudy 10 - - - -
27/08:30pm 12.6 NW 24 32 1014.7 - 1.0 - Partly cloudy 10 - - - -
27/08:00pm 12.5 NNW 21 29 1014.7 - 1.0 - Partly cloudy 10 - - - -
27/07:30pm 12.3 NW 23 31 1014.5 - 1.0 - Partly cloudy 10 - - - -
27/07:00pm 12.1 NW 21 28 1014.6 - 1.0 - Partly cloudy 10 - - - -
27/06:30pm 12.2 NW 26 32 1014.6 - 1.0 - Partly cloudy 10 - - - -
27/06:00pm 12.0 NW 26 33 1014.7 - 1.0 - Cloudy 10 - - - -
27/05:30pm 12.1 NW 26 32 1014.7 - 1.0 - Partly cloudy 10 - - - -
27/05:00pm 12.2 NW 23 31 1014.6 - 1.0 - Partly cloudy 10 - - - -
27/04:31pm 12.1 NW 28 38 1014.8 - 1.0 - Partly cloudy 10 - - - -
27/04:30pm 12.1 NW 29 38 1014.8 - 1.0 - Partly cloudy 10 - - - -
27/04:01pm 12.0 NW 23 33 1014.7 - 1.0 - Partly cloudy 10 - - - -
27/04:00pm 11.9 NW 23 30 1014.7 - 1.0 - Partly cloudy 10 - - - -
27/03:30pm 12.2 NW 22 29 1014.8 - 1.0 - Partly cloudy 10 - - - -
27/03:00pm 12.0 NW 25 30 1015.1 - 1.0 Drizzle Mostly cloudy 10 - - - -
27/02:30pm 11.6 NW 24 31 1015.5 - 1.0 - Partly cloudy 10 - - - -
27/02:00pm 12.0 NW 25 31 1015.7 - 1.0 - Partly cloudy 10 - - - -
27/01:44pm 12.1 NW 23 33 1015.8 - 1.0 - Partly cloudy 10 - - - -
27/01:30pm 12.2 NW 24 32 1016.0 - 1.0 - Partly cloudy 10 - - - -
27/01:00pm 11.6 NW 24 31 1016.3 - 1.0 - Partly cloudy 10 - - - -
27/12:46pm 11.8 NW 23 33 1016.5 - 1.0 - Partly cloudy 10 - - - -
27/12:30pm 12.7 NW 22 27 1016.6 - 1.0 - Partly cloudy 10 - - - -
27/12:00pm 12.2 NW 24 31 1017.0 - 1.0 Rain Cloudy 10 - - - -
27/11:45am 12.0 NW 22 32 1017.1 - 1.0 - Partly cloudy 10 - - - -
27/11:30am 12.0 NW 21 27 1017.1 - 1.0 - Partly cloudy 10 - - - -
27/11:19am 11.4 NW 20 29 1017.1 - 1.0 - Partly cloudy 10 - - - -
27/11:04am 10.9 NW 21 28 1017.4 - 1.0 - Partly cloudy 5 - - - -
27/11:00am 11.4 NW 21 28 1017.6 - 0.4 - Partly cloudy 10 - - - -
27/10:48am 10.8 NW 16 26 1017.6 - 0.4 - Partly cloudy 10 - - - -
27/10:42am 10.9 NW 18 23 1017.6 - 0.4 - Partly cloudy 6 - - - -
27/10:31am 10.8 NW 26 36 1017.9 - 0.2 - Partly cloudy 5 - - - -
27/10:30am 10.6 NW 27 36 1017.9 - 0.2 - Partly cloudy 4 - - - -
27/10:25am 10.7 NW 25 36 1017.9 - 0.2 - Partly cloudy 5 - - - -
27/10:24am 10.6 NW 24 33 1017.9 - 0.2 - Partly cloudy 5 - - - -
27/10:22am 10.6 NW 23 33 1017.9 - 0.2 - Partly cloudy 7 - - - -
27/10:00am 11.7 NW 22 27 1018.0 - 0.0 - Partly cloudy 10 - - - -
27/09:30am 11.9 NW 22 29 1018.0 - 0.0 - Partly cloudy 10 - - - -
27/09:00am 12.0 NW 23 30 1017.9 - 3.6 - Mostly cloudy 10 - - - -
27/08:30am 11.7 NW 19 23 1017.8 - 3.6 - Partly cloudy 10 - - - -
27/08:00am 11.3 WNW 20 26 1017.9 - 3.6 - Partly cloudy 10 - - - -
27/07:30am 11.1 WNW 21 28 1017.7 - 3.6 - Partly cloudy 10 - - - -
27/07:00am 10.8 WNW 19 26 1017.6 - 3.6 - Partly cloudy 10 - - - -
27/06:30am 10.4 WNW 15 20 1017.4 - 3.6 - - 10 - - - -
27/06:00am 10.0 WNW 12 17 1017.6 - 3.6 Showers Partly cloudy 10 - - - -
27/05:30am 10.3 WNW 18 26 1018.0 - 3.2 - Partly cloudy 10 - - - -
27/05:05am 10.8 W 18 28 1017.8 - 3.2 - Partly cloudy 10 - - - -
27/05:00am 11.1 WNW 19 28 1017.8 - 3.2 - Partly cloudy 10 - - - -
27/04:45am 10.9 W 16 26 1017.7 - 3.2 - Partly cloudy 10 - - - -
27/04:30am 11.2 W 17 25 1017.6 - 3.2 - Partly cloudy 10 - - - -
27/04:00am 10.9 WNW 15 22 1017.7 - 3.2 - Partly cloudy 10 - - - -
27/03:57am 10.5 WNW 17 27 1017.7 - 3.2 - Partly cloudy 10 - - - -
27/03:30am 10.8 W 14 18 1017.6 - 3.2 - Partly cloudy 10 - - - -
27/03:00am 10.6 WNW 13 18 1017.6 - 3.2 - Cloudy 10 - - - -
27/02:30am 10.3 WNW 12 15 1017.8 - 3.2 - Partly cloudy 10 - - - -
27/02:00am 10.3 WNW 14 19 1018.1 - 3.2 - Partly cloudy 10 - - - -
27/01:30am 10.1 WNW 10 16 1018.1 - 3.2 - Partly cloudy 10 - - - -
27/01:00am 9.9 W 11 16 1018.4 - 3.2 - Partly cloudy 10 - - - -
27/12:30am 9.6 WNW 9 14 1018.5 - 3.2 - - 10 - - - -
27/12:00am 9.5 WNW 9 14 1018.7 - 3.2 Drizzle Cloudy 10 - - - -
 
Date/Time
EST
Temp
°C
Wind Pressure Rain since
9am
mm
Weather Cloud Vis
km
Sea
Height
m
Swell
Dir  Spd
kts
Gust
kts
hPa Trend Height
m
Period
s
Dir
26/11:30pm 9.9 W 12 15 1019.0 - 3.2 - Partly cloudy 10 - - - -
26/11:00pm 10.3 W 11 17 1019.1 - 3.2 - Partly cloudy 10 - - - -
26/10:35pm 9.5 W 9 12 1019.2 - 3.2 - Partly cloudy 10 - - - -
26/10:30pm 9.6 W 10 17 1019.2 - 2.8 - Partly cloudy 10 - - - -
26/10:22pm 10.0 WNW 15 19 1019.3 - 2.8 - Partly cloudy 5 - - - -
26/10:14pm 10.4 WNW 11 17 1019.2 - 2.0 - Partly cloudy 10 - - - -
26/10:01pm 10.4 W 15 21 1019.3 - 2.0 - Partly cloudy 5 - - - -
26/10:00pm 10.4 W 14 21 1019.3 - 2.0 - Partly cloudy 6 - - - -
26/09:30pm 10.3 W 11 19 1019.2 - 1.4 - Partly cloudy 10 - - - -
26/09:00pm 9.8 WNW 11 16 1019.3 - 1.4 Rain Partly cloudy 10 - - - -
26/08:42pm 9.8 WNW 11 15 1019.3 - 1.4 - Partly cloudy 10 - - - -
26/08:30pm 10.4 W 15 27 1019.3 - 1.4 - Partly cloudy 5 - - - -
26/08:28pm 10.4 W 15 27 1019.3 - 1.4 - Partly cloudy 5 - - - -
26/08:00pm 11.0 W 11 15 1019.1 - 0.6 - Partly cloudy 10 - - - -
26/07:30pm 11.0 WNW 12 15 1019.0 - 0.6 - Partly cloudy 10 - - - -
26/07:00pm 10.6 W 12 17 1019.0 - 0.6 - Partly cloudy 10 - - - -
26/06:30pm 10.6 W 15 19 1019.0 - 0.6 - Partly cloudy 10 - - - -
26/06:00pm 10.6 W 13 17 1018.7 - 0.6 - Cloudy 10 - - - -
26/05:30pm 10.9 W 11 15 1018.5 - 0.6 - Partly cloudy 10 - - - -
26/05:00pm 11.4 W 14 19 1018.3 - 0.6 - Partly cloudy 10 - - - -
26/04:30pm 12.0 W 13 20 1018.2 - 0.6 - Partly cloudy 10 - - - -
26/04:00pm 11.9 W 15 20 1018.3 - 0.6 - Partly cloudy 10 - - - -
26/03:30pm 12.2 W 14 18 1018.2 - 0.6 - Partly cloudy 10 - - - -
26/03:00pm 12.1 W 16 21 1018.2 - 0.6 - Partly cloudy 10 - - - -
26/02:30pm 12.0 W 16 22 1018.3 - 0.6 - Partly cloudy 10 - - - -
26/02:00pm 12.1 W 15 21 1018.3 - 0.6 - Partly cloudy 10 - - - -
26/01:30pm 12.5 WSW 17 21 1018.5 - 0.6 - Partly cloudy 10 - - - -
26/01:00pm 12.1 W 15 21 1018.7 - 0.6 - Partly cloudy 10 - - - -
26/12:30pm 11.5 W 16 21 1019.1 - 0.6 - Partly cloudy 10 - - - -
26/12:00pm 11.5 W 17 22 1019.4 - 0.6 Recent precip. Cloudy 10 - - - -
26/11:30am 11.2 W 14 19 1019.6 - 0.6 - Partly cloudy 10 - - - -
26/11:00am 10.6 W 13 18 1019.6 - 0.4 - Partly cloudy 10 - - - -
26/10:30am 11.7 W 12 17 1019.8 - 0.4 - Partly cloudy 10 - - - -
26/10:00am 10.2 W 13 18 1020.1 - 0.4 - Partly cloudy 9 - - - -
26/09:30am 10.9 W 12 16 1020.0 - 0.0 - Partly cloudy 10 - - - -
26/09:00am 10.7 W 10 13 1019.9 - 0.0 - Cloudy 10 - - - -
26/08:30am 9.8 W 10 14 1019.7 - 0.0 - Partly cloudy 10 - - - -
26/08:00am 9.5 W 11 15 1019.7 - 0.0 - Partly cloudy 10 - - - -
26/07:30am 9.4 WSW 10 15 1019.3 - 0.0 - Partly cloudy 10 - - - -
26/07:00am 8.9 W 11 14 1019.2 - 0.0 - Partly cloudy 10 - - - -
26/06:30am 9.3 W 11 16 1019.0 - 0.0 - Partly cloudy 10 - - - -
26/06:00am 9.5 WSW 15 20 1018.9 - 0.0 - Cloudy 10 - - - -
26/05:30am 9.3 W 13 17 1018.7 - 0.0 - Partly cloudy 10 - - - -
26/05:00am 9.6 W 13 18 1018.6 - 0.0 - Cloudy 10 - - - -
26/04:30am 9.5 W 13 18 1018.4 - 0.0 - Cloudy 10 - - - -
26/04:00am 9.5 WSW 11 17 1018.3 - 0.0 - Cloudy 10 - - - -
26/03:30am 9.8 WSW 13 18 1018.2 - 0.0 - Partly cloudy 10 - - - -
26/03:00am 9.7 W 11 17 1018.1 - 0.0 - Cloudy 10 - - - -
26/02:30am 9.4 W 11 15 1018.2 - 0.0 - Partly cloudy 10 - - - -
26/02:00am 9.5 W 11 15 1018.4 - 0.0 - Partly cloudy 10 - - - -
26/01:30am 9.8 W 14 18 1018.4 - 0.0 - Partly cloudy 10 - - - -
26/01:00am 9.5 WSW 8 11 1018.3 - 0.0 - Partly cloudy 10 - - - -
26/12:30am 9.3 WSW 13 19 1018.5 - 0.0 - Cloudy 10 - - - -
26/12:00am 9.5 WSW 10 14 1018.6 - 0.0 Drizzle Cloudy 10 - - - -
 
Date/Time
EST
Temp
°C
Wind Pressure Rain since
9am
mm
Weather Cloud Vis
km
Sea
Height
m
Swell
Dir  Spd
kts
Gust
kts
hPa Trend Height
m
Period
s
Dir
25/11:30pm 8.8 WSW 8 11 1018.6 - 0.0 - Partly cloudy 10 - - - -
25/11:00pm 9.2 WSW 7 9 1018.6 - 0.0 - Partly cloudy 10 - - - -
25/10:30pm 9.2 WSW 6 9 1018.8 - 0.0 - Partly cloudy 10 - - - -
25/10:00pm 9.2 WSW 8 11 1018.9 - 0.0 - Partly cloudy 10 - - - -
25/09:30pm 9.5 WSW 12 17 1018.9 - 0.0 - Partly cloudy 10 - - - -
25/09:00pm 9.3 SW 7 9 1018.6 - 0.0 - Cloudy 10 - - - -
25/08:30pm 9.1 SW 6 8 1018.6 - 0.0 - Partly cloudy 10 - - - -
25/08:00pm 9.1 SW 8 10 1018.4 - 0.0 - Partly cloudy 10 - - - -
25/07:30pm 9.7 SW 10 15 1018.3 - 0.0 - Partly cloudy 10 - - - -
25/07:00pm 9.8 SW 10 14 1018.0 - 0.0 - Cloudy 10 - - - -

Other Formats:

Comma delimited format used in spreadsheet applications
http://www.bom.gov.au/fwo/IDV60701/IDV60701.94850.axf

JavaScript Object Notation format (JSON) in row-major order
http://www.bom.gov.au/fwo/IDV60701/IDV60701.94850.json